sensor_id;sensor_type;location;lat;lon;timestamp;P1;durP1;ratioP1;P2;durP2;ratioP2
3443;SDS011;1736;52.068;6.968;2024-02-14T00:01:18;8.40;;;5.93;;
3443;SDS011;1736;52.068;6.968;2024-02-14T00:03:43;6.82;;;5.63;;
3443;SDS011;1736;52.068;6.968;2024-02-14T00:06:10;8.55;;;5.80;;
3443;SDS011;1736;52.068;6.968;2024-02-14T00:08:38;7.75;;;5.68;;
3443;SDS011;1736;52.068;6.968;2024-02-14T00:11:04;8.63;;;6.57;;
3443;SDS011;1736;52.068;6.968;2024-02-14T00:13:31;9.38;;;6.43;;
3443;SDS011;1736;52.068;6.968;2024-02-14T00:16:00;9.27;;;6.20;;
3443;SDS011;1736;52.068;6.968;2024-02-14T00:18:27;8.57;;;6.10;;
3443;SDS011;1736;52.068;6.968;2024-02-14T00:20:54;9.00;;;6.75;;
3443;SDS011;1736;52.068;6.968;2024-02-14T00:23:21;7.63;;;6.00;;
3443;SDS011;1736;52.068;6.968;2024-02-14T00:25:48;10.13;;;5.80;;
3443;SDS011;1736;52.068;6.968;2024-02-14T00:28:14;8.63;;;6.30;;
3443;SDS011;1736;52.068;6.968;2024-02-14T00:30:41;7.00;;;6.30;;
3443;SDS011;1736;52.068;6.968;2024-02-14T00:33:08;6.88;;;6.18;;
3443;SDS011;1736;52.068;6.968;2024-02-14T00:35:35;10.40;;;6.50;;
3443;SDS011;1736;52.068;6.968;2024-02-14T00:38:01;10.10;;;6.45;;
3443;SDS011;1736;52.068;6.968;2024-02-14T00:40:28;11.40;;;6.95;;
3443;SDS011;1736;52.068;6.968;2024-02-14T00:42:55;11.38;;;7.63;;
3443;SDS011;1736;52.068;6.968;2024-02-14T00:45:22;9.95;;;7.50;;
3443;SDS011;1736;52.068;6.968;2024-02-14T00:47:48;10.73;;;7.50;;
3443;SDS011;1736;52.068;6.968;2024-02-14T00:50:16;10.43;;;8.00;;
3443;SDS011;1736;52.068;6.968;2024-02-14T00:52:43;14.10;;;8.60;;
3443;SDS011;1736;52.068;6.968;2024-02-14T00:55:09;10.98;;;8.77;;
3443;SDS011;1736;52.068;6.968;2024-02-14T00:57:36;11.40;;;7.60;;
3443;SDS011;1736;52.068;6.968;2024-02-14T01:00:03;11.35;;;8.32;;
3443;SDS011;1736;52.068;6.968;2024-02-14T01:02:31;10.38;;;8.27;;
3443;SDS011;1736;52.068;6.968;2024-02-14T01:04:58;10.75;;;8.50;;
3443;SDS011;1736;52.068;6.968;2024-02-14T01:07:26;13.02;;;7.70;;
3443;SDS011;1736;52.068;6.968;2024-02-14T01:09:52;13.35;;;8.60;;
3443;SDS011;1736;52.068;6.968;2024-02-14T01:12:19;11.98;;;8.73;;
3443;SDS011;1736;52.068;6.968;2024-02-14T01:14:45;15.38;;;9.05;;
3443;SDS011;1736;52.068;6.968;2024-02-14T01:17:12;11.23;;;8.25;;
3443;SDS011;1736;52.068;6.968;2024-02-14T01:19:39;8.77;;;7.38;;
3443;SDS011;1736;52.068;6.968;2024-02-14T01:22:05;12.50;;;8.23;;
3443;SDS011;1736;52.068;6.968;2024-02-14T01:24:35;12.10;;;8.20;;
3443;SDS011;1736;52.068;6.968;2024-02-14T01:27:01;9.65;;;8.15;;
3443;SDS011;1736;52.068;6.968;2024-02-14T01:29:29;13.13;;;8.70;;
3443;SDS011;1736;52.068;6.968;2024-02-14T01:31:55;12.98;;;7.40;;
3443;SDS011;1736;52.068;6.968;2024-02-14T01:34:22;12.77;;;7.68;;
3443;SDS011;1736;52.068;6.968;2024-02-14T01:36:49;10.50;;;8.00;;
3443;SDS011;1736;52.068;6.968;2024-02-14T01:39:15;12.30;;;8.43;;
3443;SDS011;1736;52.068;6.968;2024-02-14T01:41:45;11.15;;;8.00;;
3443;SDS011;1736;52.068;6.968;2024-02-14T01:44:13;13.18;;;7.80;;
3443;SDS011;1736;52.068;6.968;2024-02-14T01:46:40;9.30;;;8.20;;
3443;SDS011;1736;52.068;6.968;2024-02-14T01:49:07;12.88;;;9.00;;
3443;SDS011;1736;52.068;6.968;2024-02-14T01:51:34;9.73;;;8.07;;
3443;SDS011;1736;52.068;6.968;2024-02-14T01:54:02;9.30;;;7.70;;
3443;SDS011;1736;52.068;6.968;2024-02-14T01:56:29;9.77;;;7.60;;
3443;SDS011;1736;52.068;6.968;2024-02-14T01:58:58;8.57;;;7.45;;
3443;SDS011;1736;52.068;6.968;2024-02-14T02:01:25;11.27;;;8.02;;
3443;SDS011;1736;52.068;6.968;2024-02-14T02:03:53;9.52;;;7.35;;
3443;SDS011;1736;52.068;6.968;2024-02-14T02:06:19;10.97;;;7.80;;
3443;SDS011;1736;52.068;6.968;2024-02-14T02:08:46;9.43;;;7.50;;
3443;SDS011;1736;52.068;6.968;2024-02-14T02:11:13;8.93;;;6.80;;
3443;SDS011;1736;52.068;6.968;2024-02-14T02:13:39;9.48;;;7.10;;
3443;SDS011;1736;52.068;6.968;2024-02-14T02:16:07;11.20;;;7.05;;
3443;SDS011;1736;52.068;6.968;2024-02-14T02:18:34;6.78;;;6.00;;
3443;SDS011;1736;52.068;6.968;2024-02-14T02:21:02;7.93;;;6.00;;
3443;SDS011;1736;52.068;6.968;2024-02-14T02:23:33;7.07;;;5.80;;
3443;SDS011;1736;52.068;6.968;2024-02-14T02:25:59;8.40;;;6.22;;
3443;SDS011;1736;52.068;6.968;2024-02-14T02:28:26;7.55;;;6.47;;
3443;SDS011;1736;52.068;6.968;2024-02-14T02:30:52;7.30;;;6.00;;
3443;SDS011;1736;52.068;6.968;2024-02-14T02:33:20;8.57;;;6.55;;
3443;SDS011;1736;52.068;6.968;2024-02-14T02:35:47;10.20;;;7.18;;
3443;SDS011;1736;52.068;6.968;2024-02-14T02:38:15;8.20;;;5.50;;
3443;SDS011;1736;52.068;6.968;2024-02-14T02:40:43;9.70;;;6.30;;
3443;SDS011;1736;52.068;6.968;2024-02-14T02:43:08;7.90;;;6.03;;
3443;SDS011;1736;52.068;6.968;2024-02-14T02:45:35;6.60;;;5.80;;
3443;SDS011;1736;52.068;6.968;2024-02-14T02:48:02;7.10;;;6.10;;
3443;SDS011;1736;52.068;6.968;2024-02-14T02:50:29;7.53;;;5.83;;
3443;SDS011;1736;52.068;6.968;2024-02-14T02:52:55;7.72;;;6.20;;
3443;SDS011;1736;52.068;6.968;2024-02-14T02:55:22;8.02;;;6.90;;
3443;SDS011;1736;52.068;6.968;2024-02-14T02:57:50;6.22;;;5.38;;
3443;SDS011;1736;52.068;6.968;2024-02-14T03:00:17;6.63;;;5.50;;
3443;SDS011;1736;52.068;6.968;2024-02-14T03:02:46;6.28;;;5.68;;
3443;SDS011;1736;52.068;6.968;2024-02-14T03:05:14;9.10;;;6.35;;
3443;SDS011;1736;52.068;6.968;2024-02-14T03:07:43;8.30;;;7.07;;
3443;SDS011;1736;52.068;6.968;2024-02-14T03:10:13;7.70;;;6.30;;
3443;SDS011;1736;52.068;6.968;2024-02-14T03:12:42;9.45;;;5.80;;
3443;SDS011;1736;52.068;6.968;2024-02-14T03:15:12;7.07;;;6.32;;
3443;SDS011;1736;52.068;6.968;2024-02-14T03:17:38;8.70;;;6.00;;
3443;SDS011;1736;52.068;6.968;2024-02-14T03:20:05;9.73;;;5.83;;
3443;SDS011;1736;52.068;6.968;2024-02-14T03:22:37;7.50;;;5.80;;
3443;SDS011;1736;52.068;6.968;2024-02-14T03:25:09;9.83;;;7.23;;
3443;SDS011;1736;52.068;6.968;2024-02-14T03:27:38;9.07;;;7.20;;
3443;SDS011;1736;52.068;6.968;2024-02-14T03:30:05;8.80;;;6.90;;
3443;SDS011;1736;52.068;6.968;2024-02-14T03:32:34;9.68;;;6.28;;
3443;SDS011;1736;52.068;6.968;2024-02-14T03:35:01;8.82;;;6.57;;
3443;SDS011;1736;52.068;6.968;2024-02-14T03:37:27;7.65;;;6.10;;
3443;SDS011;1736;52.068;6.968;2024-02-14T03:39:54;7.50;;;6.10;;
3443;SDS011;1736;52.068;6.968;2024-02-14T03:42:21;11.30;;;7.47;;
3443;SDS011;1736;52.068;6.968;2024-02-14T03:44:48;10.48;;;6.80;;
3443;SDS011;1736;52.068;6.968;2024-02-14T03:47:14;9.30;;;6.70;;
3443;SDS011;1736;52.068;6.968;2024-02-14T03:49:42;7.20;;;6.18;;
3443;SDS011;1736;52.068;6.968;2024-02-14T03:52:09;7.20;;;6.03;;
3443;SDS011;1736;52.068;6.968;2024-02-14T03:54:36;8.77;;;7.35;;
3443;SDS011;1736;52.068;6.968;2024-02-14T03:57:03;10.70;;;7.00;;
3443;SDS011;1736;52.068;6.968;2024-02-14T03:59:31;10.93;;;7.00;;
3443;SDS011;1736;52.068;6.968;2024-02-14T04:02:00;11.27;;;7.40;;
3443;SDS011;1736;52.068;6.968;2024-02-14T04:04:26;9.05;;;6.70;;
3443;SDS011;1736;52.068;6.968;2024-02-14T04:06:55;9.15;;;7.05;;
3443;SDS011;1736;52.068;6.968;2024-02-14T04:09:23;8.88;;;6.22;;
3443;SDS011;1736;52.068;6.968;2024-02-14T04:11:50;9.30;;;6.63;;
3443;SDS011;1736;52.068;6.968;2024-02-14T04:14:16;7.53;;;6.70;;
3443;SDS011;1736;52.068;6.968;2024-02-14T04:16:43;8.18;;;6.75;;
3443;SDS011;1736;52.068;6.968;2024-02-14T04:19:09;7.90;;;6.70;;
3443;SDS011;1736;52.068;6.968;2024-02-14T04:21:38;8.45;;;6.25;;
3443;SDS011;1736;52.068;6.968;2024-02-14T04:24:05;7.50;;;6.40;;
3443;SDS011;1736;52.068;6.968;2024-02-14T04:26:33;8.10;;;6.40;;
3443;SDS011;1736;52.068;6.968;2024-02-14T04:29:00;9.38;;;6.60;;
3443;SDS011;1736;52.068;6.968;2024-02-14T04:31:26;9.40;;;6.90;;
3443;SDS011;1736;52.068;6.968;2024-02-14T04:33:54;8.07;;;6.60;;
3443;SDS011;1736;52.068;6.968;2024-02-14T04:36:21;7.78;;;6.50;;
3443;SDS011;1736;52.068;6.968;2024-02-14T04:38:48;7.43;;;6.18;;
3443;SDS011;1736;52.068;6.968;2024-02-14T04:41:16;7.70;;;6.40;;
3443;SDS011;1736;52.068;6.968;2024-02-14T04:43:43;7.57;;;6.50;;
3443;SDS011;1736;52.068;6.968;2024-02-14T04:46:10;8.43;;;6.60;;
3443;SDS011;1736;52.068;6.968;2024-02-14T04:48:36;10.10;;;6.70;;
3443;SDS011;1736;52.068;6.968;2024-02-14T04:51:03;9.48;;;6.97;;
3443;SDS011;1736;52.068;6.968;2024-02-14T04:53:42;8.10;;;7.30;;
3443;SDS011;1736;52.068;6.968;2024-02-14T04:56:08;7.68;;;6.50;;
3443;SDS011;1736;52.068;6.968;2024-02-14T04:58:36;7.10;;;6.40;;
3443;SDS011;1736;52.068;6.968;2024-02-14T05:01:03;9.00;;;7.50;;
3443;SDS011;1736;52.068;6.968;2024-02-14T05:03:31;9.68;;;7.70;;
3443;SDS011;1736;52.068;6.968;2024-02-14T05:05:58;9.05;;;7.55;;
3443;SDS011;1736;52.068;6.968;2024-02-14T05:08:27;9.45;;;7.80;;
3443;SDS011;1736;52.068;6.968;2024-02-14T05:10:54;11.35;;;8.05;;
3443;SDS011;1736;52.068;6.968;2024-02-14T05:13:20;11.90;;;9.10;;
3443;SDS011;1736;52.068;6.968;2024-02-14T05:15:48;11.05;;;8.25;;
3443;SDS011;1736;52.068;6.968;2024-02-14T05:18:16;9.85;;;8.00;;
3443;SDS011;1736;52.068;6.968;2024-02-14T05:20:43;10.80;;;8.63;;
3443;SDS011;1736;52.068;6.968;2024-02-14T05:23:09;9.65;;;7.80;;
3443;SDS011;1736;52.068;6.968;2024-02-14T05:25:36;10.65;;;8.23;;
3443;SDS011;1736;52.068;6.968;2024-02-14T05:28:03;11.60;;;7.60;;
3443;SDS011;1736;52.068;6.968;2024-02-14T05:30:30;11.17;;;8.40;;
3443;SDS011;1736;52.068;6.968;2024-02-14T05:32:58;11.55;;;8.60;;
3443;SDS011;1736;52.068;6.968;2024-02-14T05:35:25;12.30;;;8.80;;
3443;SDS011;1736;52.068;6.968;2024-02-14T05:37:51;13.13;;;9.40;;
3443;SDS011;1736;52.068;6.968;2024-02-14T05:40:19;11.43;;;8.77;;
3443;SDS011;1736;52.068;6.968;2024-02-14T05:42:46;15.40;;;9.80;;
3443;SDS011;1736;52.068;6.968;2024-02-14T05:45:13;12.80;;;9.35;;
3443;SDS011;1736;52.068;6.968;2024-02-14T05:47:39;12.65;;;8.90;;
3443;SDS011;1736;52.068;6.968;2024-02-14T05:50:09;12.88;;;9.90;;
3443;SDS011;1736;52.068;6.968;2024-02-14T05:52:36;14.38;;;9.60;;
3443;SDS011;1736;52.068;6.968;2024-02-14T05:55:03;17.90;;;9.52;;
3443;SDS011;1736;52.068;6.968;2024-02-14T05:57:31;13.25;;;9.95;;
3443;SDS011;1736;52.068;6.968;2024-02-14T05:59:57;12.15;;;9.60;;
3443;SDS011;1736;52.068;6.968;2024-02-14T06:02:24;12.70;;;9.60;;
3443;SDS011;1736;52.068;6.968;2024-02-14T06:04:50;11.80;;;8.98;;
3443;SDS011;1736;52.068;6.968;2024-02-14T06:07:18;12.95;;;10.00;;
3443;SDS011;1736;52.068;6.968;2024-02-14T06:09:45;10.57;;;8.50;;
3443;SDS011;1736;52.068;6.968;2024-02-14T06:12:12;13.73;;;9.00;;
3443;SDS011;1736;52.068;6.968;2024-02-14T06:14:38;15.52;;;9.50;;
3443;SDS011;1736;52.068;6.968;2024-02-14T06:17:05;12.37;;;9.23;;
3443;SDS011;1736;52.068;6.968;2024-02-14T06:19:31;12.82;;;9.82;;
3443;SDS011;1736;52.068;6.968;2024-02-14T06:22:00;13.30;;;10.00;;
3443;SDS011;1736;52.068;6.968;2024-02-14T06:24:27;14.35;;;9.80;;
3443;SDS011;1736;52.068;6.968;2024-02-14T06:26:54;13.30;;;9.15;;
3443;SDS011;1736;52.068;6.968;2024-02-14T06:29:21;13.93;;;9.75;;
3443;SDS011;1736;52.068;6.968;2024-02-14T06:31:47;14.60;;;10.13;;
3443;SDS011;1736;52.068;6.968;2024-02-14T06:34:14;13.82;;;10.30;;
3443;SDS011;1736;52.068;6.968;2024-02-14T06:36:41;17.05;;;10.18;;
3443;SDS011;1736;52.068;6.968;2024-02-14T06:39:07;13.52;;;9.85;;
3443;SDS011;1736;52.068;6.968;2024-02-14T06:41:35;12.82;;;9.25;;
3443;SDS011;1736;52.068;6.968;2024-02-14T06:44:02;17.00;;;9.90;;
3443;SDS011;1736;52.068;6.968;2024-02-14T06:46:29;12.40;;;9.30;;
3443;SDS011;1736;52.068;6.968;2024-02-14T06:48:56;11.50;;;8.95;;
3443;SDS011;1736;52.068;6.968;2024-02-14T06:51:22;12.13;;;9.13;;
3443;SDS011;1736;52.068;6.968;2024-02-14T06:53:49;11.30;;;9.40;;
3443;SDS011;1736;52.068;6.968;2024-02-14T06:56:16;10.60;;;8.90;;
3443;SDS011;1736;52.068;6.968;2024-02-14T06:58:44;15.50;;;8.80;;
3443;SDS011;1736;52.068;6.968;2024-02-14T07:01:11;13.15;;;9.23;;
3443;SDS011;1736;52.068;6.968;2024-02-14T07:03:40;12.38;;;9.45;;
3443;SDS011;1736;52.068;6.968;2024-02-14T07:06:07;12.60;;;9.30;;
3443;SDS011;1736;52.068;6.968;2024-02-14T07:08:33;12.23;;;9.23;;
3443;SDS011;1736;52.068;6.968;2024-02-14T07:11:00;11.33;;;8.87;;
3443;SDS011;1736;52.068;6.968;2024-02-14T07:13:27;13.57;;;9.60;;
3443;SDS011;1736;52.068;6.968;2024-02-14T07:15:55;12.07;;;8.95;;
3443;SDS011;1736;52.068;6.968;2024-02-14T07:18:21;12.68;;;8.98;;
3443;SDS011;1736;52.068;6.968;2024-02-14T07:20:48;13.03;;;9.47;;
3443;SDS011;1736;52.068;6.968;2024-02-14T07:23:14;13.38;;;8.93;;
3443;SDS011;1736;52.068;6.968;2024-02-14T07:25:41;13.02;;;8.63;;
3443;SDS011;1736;52.068;6.968;2024-02-14T07:28:08;11.20;;;8.88;;
3443;SDS011;1736;52.068;6.968;2024-02-14T07:30:35;11.43;;;8.50;;
3443;SDS011;1736;52.068;6.968;2024-02-14T07:33:03;9.30;;;8.30;;
3443;SDS011;1736;52.068;6.968;2024-02-14T07:35:29;9.75;;;8.75;;
3443;SDS011;1736;52.068;6.968;2024-02-14T07:37:56;11.67;;;9.00;;
3443;SDS011;1736;52.068;6.968;2024-02-14T07:40:23;10.82;;;8.40;;
3443;SDS011;1736;52.068;6.968;2024-02-14T07:42:50;10.85;;;8.40;;
3443;SDS011;1736;52.068;6.968;2024-02-14T07:45:17;9.52;;;8.10;;
3443;SDS011;1736;52.068;6.968;2024-02-14T07:47:44;11.27;;;8.52;;
3443;SDS011;1736;52.068;6.968;2024-02-14T07:50:12;10.48;;;7.60;;
3443;SDS011;1736;52.068;6.968;2024-02-14T07:52:41;8.93;;;7.70;;
3443;SDS011;1736;52.068;6.968;2024-02-14T07:55:08;9.88;;;7.93;;
3443;SDS011;1736;52.068;6.968;2024-02-14T07:57:37;9.02;;;8.13;;
3443;SDS011;1736;52.068;6.968;2024-02-14T08:00:04;9.02;;;7.57;;
3443;SDS011;1736;52.068;6.968;2024-02-14T08:02:33;10.18;;;7.82;;
3443;SDS011;1736;52.068;6.968;2024-02-14T08:05:01;8.88;;;7.10;;
3443;SDS011;1736;52.068;6.968;2024-02-14T08:07:29;10.80;;;7.90;;
3443;SDS011;1736;52.068;6.968;2024-02-14T08:09:55;9.82;;;8.38;;
3443;SDS011;1736;52.068;6.968;2024-02-14T08:12:22;10.10;;;7.80;;
3443;SDS011;1736;52.068;6.968;2024-02-14T08:14:51;9.85;;;7.88;;
3443;SDS011;1736;52.068;6.968;2024-02-14T08:17:18;10.32;;;8.35;;
3443;SDS011;1736;52.068;6.968;2024-02-14T08:19:44;8.80;;;7.90;;
3443;SDS011;1736;52.068;6.968;2024-02-14T08:22:11;9.20;;;8.20;;
3443;SDS011;1736;52.068;6.968;2024-02-14T08:24:40;10.85;;;8.57;;
3443;SDS011;1736;52.068;6.968;2024-02-14T08:27:07;11.10;;;8.20;;
3443;SDS011;1736;52.068;6.968;2024-02-14T08:29:33;10.00;;;8.10;;
3443;SDS011;1736;52.068;6.968;2024-02-14T08:32:00;11.73;;;8.63;;
3443;SDS011;1736;52.068;6.968;2024-02-14T08:34:28;11.00;;;8.90;;
3443;SDS011;1736;52.068;6.968;2024-02-14T08:36:55;12.98;;;9.32;;
3443;SDS011;1736;52.068;6.968;2024-02-14T08:39:21;12.60;;;9.73;;
3443;SDS011;1736;52.068;6.968;2024-02-14T08:41:49;13.20;;;9.70;;
3443;SDS011;1736;52.068;6.968;2024-02-14T08:44:16;12.90;;;9.68;;
3443;SDS011;1736;52.068;6.968;2024-02-14T08:46:43;14.38;;;10.68;;
3443;SDS011;1736;52.068;6.968;2024-02-14T08:49:13;12.85;;;10.20;;
3443;SDS011;1736;52.068;6.968;2024-02-14T08:51:40;13.93;;;10.80;;
3443;SDS011;1736;52.068;6.968;2024-02-14T08:54:08;13.87;;;10.60;;
3443;SDS011;1736;52.068;6.968;2024-02-14T08:56:34;13.73;;;9.85;;
3443;SDS011;1736;52.068;6.968;2024-02-14T08:59:04;15.32;;;11.18;;
3443;SDS011;1736;52.068;6.968;2024-02-14T09:01:31;15.43;;;11.40;;
3443;SDS011;1736;52.068;6.968;2024-02-14T09:03:59;13.93;;;11.05;;
3443;SDS011;1736;52.068;6.968;2024-02-14T09:06:25;15.68;;;11.23;;
3443;SDS011;1736;52.068;6.968;2024-02-14T09:08:52;14.15;;;10.80;;
3443;SDS011;1736;52.068;6.968;2024-02-14T09:11:19;14.95;;;10.82;;
3443;SDS011;1736;52.068;6.968;2024-02-14T09:13:47;14.07;;;10.60;;
3443;SDS011;1736;52.068;6.968;2024-02-14T09:16:20;12.77;;;10.23;;
3443;SDS011;1736;52.068;6.968;2024-02-14T09:18:47;13.48;;;11.10;;
3443;SDS011;1736;52.068;6.968;2024-02-14T09:21:14;14.30;;;11.30;;
3443;SDS011;1736;52.068;6.968;2024-02-14T09:23:40;15.38;;;10.40;;
3443;SDS011;1736;52.068;6.968;2024-02-14T09:26:07;14.07;;;10.65;;
3443;SDS011;1736;52.068;6.968;2024-02-14T09:28:33;13.40;;;9.73;;
3443;SDS011;1736;52.068;6.968;2024-02-14T09:31:01;12.75;;;10.07;;
3443;SDS011;1736;52.068;6.968;2024-02-14T09:33:31;14.90;;;10.40;;
3443;SDS011;1736;52.068;6.968;2024-02-14T09:35:57;14.13;;;10.18;;
3443;SDS011;1736;52.068;6.968;2024-02-14T09:38:24;12.88;;;9.80;;
3443;SDS011;1736;52.068;6.968;2024-02-14T09:40:53;11.52;;;9.43;;
3443;SDS011;1736;52.068;6.968;2024-02-14T09:43:22;11.60;;;9.40;;
3443;SDS011;1736;52.068;6.968;2024-02-14T09:45:58;13.68;;;9.05;;
3443;SDS011;1736;52.068;6.968;2024-02-14T09:48:26;14.25;;;9.20;;
3443;SDS011;1736;52.068;6.968;2024-02-14T09:50:56;12.00;;;8.73;;
3443;SDS011;1736;52.068;6.968;2024-02-14T09:53:23;11.77;;;9.07;;
3443;SDS011;1736;52.068;6.968;2024-02-14T09:55:50;11.63;;;8.55;;
3443;SDS011;1736;52.068;6.968;2024-02-14T09:58:17;12.38;;;9.68;;
3443;SDS011;1736;52.068;6.968;2024-02-14T10:00:44;12.90;;;9.53;;
3443;SDS011;1736;52.068;6.968;2024-02-14T10:03:11;10.27;;;8.80;;
3443;SDS011;1736;52.068;6.968;2024-02-14T10:05:38;12.13;;;8.00;;
3443;SDS011;1736;52.068;6.968;2024-02-14T10:08:06;12.40;;;8.80;;
3443;SDS011;1736;52.068;6.968;2024-02-14T10:10:34;11.35;;;8.52;;
3443;SDS011;1736;52.068;6.968;2024-02-14T10:13:03;10.70;;;9.15;;
3443;SDS011;1736;52.068;6.968;2024-02-14T10:15:30;13.18;;;10.10;;
3443;SDS011;1736;52.068;6.968;2024-02-14T10:17:57;16.38;;;12.02;;
3443;SDS011;1736;52.068;6.968;2024-02-14T10:20:24;10.13;;;8.32;;
3443;SDS011;1736;52.068;6.968;2024-02-14T10:22:51;10.93;;;9.45;;
3443;SDS011;1736;52.068;6.968;2024-02-14T10:25:19;9.63;;;7.68;;
3443;SDS011;1736;52.068;6.968;2024-02-14T10:27:46;11.45;;;10.10;;
3443;SDS011;1736;52.068;6.968;2024-02-14T10:30:14;10.68;;;9.20;;
3443;SDS011;1736;52.068;6.968;2024-02-14T10:32:41;11.53;;;7.70;;
3443;SDS011;1736;52.068;6.968;2024-02-14T10:35:12;11.10;;;8.70;;
3443;SDS011;1736;52.068;6.968;2024-02-14T10:37:40;11.13;;;8.55;;
3443;SDS011;1736;52.068;6.968;2024-02-14T10:40:07;11.57;;;9.60;;
3443;SDS011;1736;52.068;6.968;2024-02-14T10:42:36;12.10;;;9.85;;
3443;SDS011;1736;52.068;6.968;2024-02-14T10:45:05;14.25;;;12.27;;
3443;SDS011;1736;52.068;6.968;2024-02-14T10:47:34;9.75;;;8.63;;
3443;SDS011;1736;52.068;6.968;2024-02-14T10:50:02;12.65;;;9.05;;
3443;SDS011;1736;52.068;6.968;2024-02-14T10:52:31;10.35;;;8.02;;
3443;SDS011;1736;52.068;6.968;2024-02-14T10:54:59;10.73;;;8.27;;
3443;SDS011;1736;52.068;6.968;2024-02-14T10:57:28;10.15;;;8.20;;
3443;SDS011;1736;52.068;6.968;2024-02-14T10:59:58;12.32;;;8.35;;
3443;SDS011;1736;52.068;6.968;2024-02-14T11:02:25;12.60;;;8.93;;
3443;SDS011;1736;52.068;6.968;2024-02-14T11:04:55;10.60;;;8.77;;
3443;SDS011;1736;52.068;6.968;2024-02-14T11:07:22;10.82;;;9.30;;
3443;SDS011;1736;52.068;6.968;2024-02-14T11:09:59;11.82;;;9.27;;
3443;SDS011;1736;52.068;6.968;2024-02-14T11:12:32;12.52;;;8.90;;
3443;SDS011;1736;52.068;6.968;2024-02-14T11:15:01;15.50;;;9.82;;
3443;SDS011;1736;52.068;6.968;2024-02-14T11:17:36;14.32;;;10.95;;
3443;SDS011;1736;52.068;6.968;2024-02-14T11:20:11;18.92;;;13.85;;
3443;SDS011;1736;52.068;6.968;2024-02-14T11:22:39;13.30;;;10.15;;
3443;SDS011;1736;52.068;6.968;2024-02-14T11:25:16;19.63;;;11.70;;
3443;SDS011;1736;52.068;6.968;2024-02-14T11:27:44;19.05;;;13.13;;
3443;SDS011;1736;52.068;6.968;2024-02-14T11:30:13;15.23;;;11.80;;
3443;SDS011;1736;52.068;6.968;2024-02-14T11:32:42;15.75;;;10.80;;
3443;SDS011;1736;52.068;6.968;2024-02-14T11:35:10;15.30;;;12.15;;
3443;SDS011;1736;52.068;6.968;2024-02-14T11:37:37;18.88;;;14.00;;
3443;SDS011;1736;52.068;6.968;2024-02-14T11:40:04;16.63;;;11.80;;
3443;SDS011;1736;52.068;6.968;2024-02-14T11:42:32;16.08;;;11.10;;
3443;SDS011;1736;52.068;6.968;2024-02-14T11:44:59;12.40;;;9.52;;
3443;SDS011;1736;52.068;6.968;2024-02-14T11:47:27;12.20;;;9.25;;
3443;SDS011;1736;52.068;6.968;2024-02-14T11:49:53;10.98;;;8.73;;
3443;SDS011;1736;52.068;6.968;2024-02-14T11:52:23;14.53;;;9.53;;
3443;SDS011;1736;52.068;6.968;2024-02-14T11:54:50;11.60;;;8.57;;
3443;SDS011;1736;52.068;6.968;2024-02-14T11:57:17;11.07;;;8.32;;
3443;SDS011;1736;52.068;6.968;2024-02-14T11:59:44;12.27;;;8.50;;
3443;SDS011;1736;52.068;6.968;2024-02-14T12:02:12;12.07;;;8.77;;
3443;SDS011;1736;52.068;6.968;2024-02-14T12:04:41;8.10;;;7.23;;
3443;SDS011;1736;52.068;6.968;2024-02-14T12:07:08;12.53;;;7.97;;
3443;SDS011;1736;52.068;6.968;2024-02-14T12:09:35;10.43;;;7.28;;
3443;SDS011;1736;52.068;6.968;2024-02-14T12:12:02;10.30;;;6.90;;
3443;SDS011;1736;52.068;6.968;2024-02-14T12:14:32;8.80;;;7.10;;
3443;SDS011;1736;52.068;6.968;2024-02-14T12:17:00;11.65;;;7.80;;
3443;SDS011;1736;52.068;6.968;2024-02-14T12:19:27;8.30;;;6.70;;
3443;SDS011;1736;52.068;6.968;2024-02-14T12:21:55;8.02;;;6.60;;
3443;SDS011;1736;52.068;6.968;2024-02-14T12:24:26;10.98;;;6.25;;
3443;SDS011;1736;52.068;6.968;2024-02-14T12:26:54;7.82;;;6.50;;
3443;SDS011;1736;52.068;6.968;2024-02-14T12:29:23;8.03;;;6.50;;
3443;SDS011;1736;52.068;6.968;2024-02-14T12:31:49;8.68;;;6.35;;
3443;SDS011;1736;52.068;6.968;2024-02-14T12:34:16;8.13;;;6.20;;
3443;SDS011;1736;52.068;6.968;2024-02-14T12:36:45;7.87;;;6.80;;
3443;SDS011;1736;52.068;6.968;2024-02-14T12:39:13;8.32;;;6.65;;
3443;SDS011;1736;52.068;6.968;2024-02-14T12:41:39;7.07;;;5.90;;
3443;SDS011;1736;52.068;6.968;2024-02-14T12:44:06;8.80;;;6.57;;
3443;SDS011;1736;52.068;6.968;2024-02-14T12:46:32;9.20;;;8.10;;
3443;SDS011;1736;52.068;6.968;2024-02-14T12:48:59;8.43;;;6.05;;
3443;SDS011;1736;52.068;6.968;2024-02-14T12:51:26;10.40;;;6.30;;
3443;SDS011;1736;52.068;6.968;2024-02-14T12:53:53;7.80;;;6.60;;
3443;SDS011;1736;52.068;6.968;2024-02-14T12:56:21;7.40;;;6.70;;
3443;SDS011;1736;52.068;6.968;2024-02-14T12:58:48;9.63;;;7.35;;
3443;SDS011;1736;52.068;6.968;2024-02-14T13:01:15;10.02;;;7.00;;
3443;SDS011;1736;52.068;6.968;2024-02-14T13:03:43;13.10;;;8.52;;
3443;SDS011;1736;52.068;6.968;2024-02-14T13:06:10;12.57;;;7.97;;
3443;SDS011;1736;52.068;6.968;2024-02-14T13:08:36;8.05;;;7.25;;
3443;SDS011;1736;52.068;6.968;2024-02-14T13:11:03;6.97;;;5.90;;
3443;SDS011;1736;52.068;6.968;2024-02-14T13:13:35;7.88;;;6.03;;
3443;SDS011;1736;52.068;6.968;2024-02-14T13:16:01;8.00;;;6.00;;
3443;SDS011;1736;52.068;6.968;2024-02-14T13:18:28;6.45;;;5.78;;
3443;SDS011;1736;52.068;6.968;2024-02-14T13:20:55;7.40;;;6.10;;
3443;SDS011;1736;52.068;6.968;2024-02-14T13:23:24;5.70;;;5.20;;
3443;SDS011;1736;52.068;6.968;2024-02-14T13:25:51;6.30;;;5.50;;
3443;SDS011;1736;52.068;6.968;2024-02-14T13:28:17;5.80;;;5.10;;
3443;SDS011;1736;52.068;6.968;2024-02-14T13:30:46;5.35;;;4.80;;
3443;SDS011;1736;52.068;6.968;2024-02-14T13:33:13;6.72;;;5.20;;
3443;SDS011;1736;52.068;6.968;2024-02-14T13:35:39;6.10;;;5.50;;
3443;SDS011;1736;52.068;6.968;2024-02-14T13:38:06;8.90;;;6.40;;
3443;SDS011;1736;52.068;6.968;2024-02-14T13:40:34;6.70;;;6.00;;
3443;SDS011;1736;52.068;6.968;2024-02-14T13:43:01;9.18;;;8.00;;
3443;SDS011;1736;52.068;6.968;2024-02-14T13:45:30;9.90;;;7.22;;
3443;SDS011;1736;52.068;6.968;2024-02-14T13:48:09;7.03;;;5.63;;
3443;SDS011;1736;52.068;6.968;2024-02-14T13:50:36;6.30;;;5.70;;
3443;SDS011;1736;52.068;6.968;2024-02-14T13:53:03;5.85;;;5.05;;
3443;SDS011;1736;52.068;6.968;2024-02-14T13:55:30;5.88;;;5.20;;
3443;SDS011;1736;52.068;6.968;2024-02-14T13:57:56;6.30;;;5.70;;
3443;SDS011;1736;52.068;6.968;2024-02-14T14:00:23;6.25;;;5.10;;
3443;SDS011;1736;52.068;6.968;2024-02-14T14:02:50;5.40;;;4.60;;
3443;SDS011;1736;52.068;6.968;2024-02-14T14:05:18;6.35;;;5.70;;
3443;SDS011;1736;52.068;6.968;2024-02-14T14:07:47;6.43;;;5.83;;
3443;SDS011;1736;52.068;6.968;2024-02-14T14:10:13;6.35;;;5.32;;
3443;SDS011;1736;52.068;6.968;2024-02-14T14:12:40;5.50;;;5.00;;
3443;SDS011;1736;52.068;6.968;2024-02-14T14:15:07;4.80;;;4.40;;
3443;SDS011;1736;52.068;6.968;2024-02-14T14:17:34;4.80;;;4.30;;
3443;SDS011;1736;52.068;6.968;2024-02-14T14:20:01;4.50;;;4.07;;
3443;SDS011;1736;52.068;6.968;2024-02-14T14:22:30;4.90;;;4.50;;
3443;SDS011;1736;52.068;6.968;2024-02-14T14:24:57;4.32;;;4.03;;
3443;SDS011;1736;52.068;6.968;2024-02-14T14:27:23;5.10;;;4.00;;
3443;SDS011;1736;52.068;6.968;2024-02-14T14:29:50;4.60;;;4.20;;
3443;SDS011;1736;52.068;6.968;2024-02-14T14:32:18;5.10;;;4.60;;
3443;SDS011;1736;52.068;6.968;2024-02-14T14:34:45;4.93;;;3.67;;
3443;SDS011;1736;52.068;6.968;2024-02-14T14:37:12;4.40;;;4.10;;
3443;SDS011;1736;52.068;6.968;2024-02-14T14:39:40;4.10;;;3.80;;
3443;SDS011;1736;52.068;6.968;2024-02-14T14:42:09;4.45;;;4.05;;
3443;SDS011;1736;52.068;6.968;2024-02-14T14:44:35;4.53;;;4.13;;
3443;SDS011;1736;52.068;6.968;2024-02-14T14:47:04;5.35;;;4.85;;
3443;SDS011;1736;52.068;6.968;2024-02-14T14:49:31;3.35;;;3.15;;
3443;SDS011;1736;52.068;6.968;2024-02-14T14:51:59;3.60;;;3.30;;
3443;SDS011;1736;52.068;6.968;2024-02-14T14:54:29;3.50;;;3.20;;
3443;SDS011;1736;52.068;6.968;2024-02-14T14:56:57;4.43;;;4.03;;
3443;SDS011;1736;52.068;6.968;2024-02-14T14:59:24;4.57;;;3.75;;
3443;SDS011;1736;52.068;6.968;2024-02-14T15:01:51;3.70;;;3.20;;
3443;SDS011;1736;52.068;6.968;2024-02-14T15:04:19;3.10;;;2.90;;
3443;SDS011;1736;52.068;6.968;2024-02-14T15:06:46;3.50;;;3.20;;